createdAt,value
2022-12-22T00:02:07.959Z,100297.84
2022-12-22T00:04:53.827Z,100312.56
2022-12-22T00:07:39.906Z,100310.81
2022-12-22T00:10:27.222Z,100302.25
2022-12-22T00:13:13.118Z,100289.34
2022-12-22T00:15:58.982Z,100276.34
2022-12-22T00:18:45.707Z,100294.56
2022-12-22T00:21:32.270Z,100290.22
2022-12-22T00:24:18.075Z,100289.38
2022-12-22T00:27:06.446Z,100279.06
2022-12-22T00:30:01.638Z,100278.94
2022-12-22T00:32:52.000Z,100283.41
2022-12-22T00:35:41.326Z,100277.34
2022-12-22T00:38:37.059Z,100265.34
2022-12-22T00:41:23.461Z,100273.94
2022-12-22T00:44:09.897Z,100248.09
2022-12-22T00:47:06.886Z,100249.06
2022-12-22T00:49:54.484Z,100249.06
2022-12-22T00:52:42.526Z,100243.84
2022-12-22T00:55:38.584Z,100234.44
2022-12-22T00:58:31.747Z,100236.19
2022-12-22T01:01:17.619Z,100224.84
2022-12-22T01:04:03.557Z,100229.28
2022-12-22T01:06:52.817Z,100234.38
2022-12-22T01:09:39.987Z,100223.25
2022-12-22T01:12:36.996Z,100227.56
2022-12-22T01:15:28.427Z,100218.91
2022-12-22T01:18:13.848Z,100223.34
2022-12-22T01:20:59.763Z,100217.31
2022-12-22T01:23:46.404Z,100218.19
2022-12-22T01:26:32.165Z,100217.31
2022-12-22T01:29:18.229Z,100213.06
2022-12-22T01:32:04.240Z,100206.03
2022-12-22T01:34:49.904Z,100208.69
2022-12-22T01:37:36.299Z,100212.25
2022-12-22T01:40:22.355Z,100213.13
2022-12-22T01:43:08.315Z,100205.28
2022-12-22T01:45:56.928Z,100213.97
2022-12-22T01:48:50.543Z,100203.66
2022-12-22T01:51:43.916Z,100203.78
2022-12-22T01:54:31.357Z,100203.78
2022-12-22T01:57:17.713Z,100196.91
2022-12-22T02:00:03.657Z,100206.38
2022-12-22T02:02:51.319Z,100187.50
2022-12-22T02:05:38.260Z,100184.09
2022-12-22T02:08:38.786Z,100181.53
2022-12-22T02:11:51.690Z,100172.03
2022-12-22T02:14:47.200Z,100162.56
2022-12-22T02:18:02.169Z,100172.13
2022-12-22T02:21:04.125Z,100166.09
2022-12-22T02:24:19.333Z,100165.25
2022-12-22T02:27:08.661Z,100165.25
2022-12-22T02:29:59.781Z,100158.28
2022-12-22T02:32:45.826Z,100160.94
2022-12-22T02:35:34.708Z,100156.66
2022-12-22T02:38:20.115Z,100161.81
2022-12-22T02:41:14.939Z,100156.66
2022-12-22T02:44:31.486Z,100150.63
2022-12-22T02:47:38.862Z,100140.31
2022-12-22T02:50:58.873Z,100146.38
2022-12-22T02:53:47.411Z,100147.19
2022-12-22T02:56:32.966Z,100137.66
2022-12-22T02:59:18.487Z,100132.50
2022-12-22T03:02:06.850Z,100142.88
2022-12-22T03:04:52.199Z,100132.50
2022-12-22T03:07:38.221Z,100129.06
2022-12-22T03:10:24.182Z,100127.31
2022-12-22T03:13:10.240Z,100125.59
2022-12-22T03:15:55.982Z,100119.50
2022-12-22T03:18:41.986Z,100125.59
2022-12-22T03:21:27.842Z,100122.09
2022-12-22T03:24:13.715Z,100118.66
2022-12-22T03:26:41.252Z,100117.78
2022-12-22T03:29:08.376Z,100115.22
2022-12-22T03:31:35.923Z,100100.56
2022-12-22T03:34:03.131Z,100106.56
2022-12-22T03:36:30.165Z,100100.56
2022-12-22T03:38:57.208Z,100095.34
2022-12-22T03:41:43.207Z,100093.66
2022-12-22T03:44:28.934Z,100089.41
2022-12-22T03:46:56.109Z,100102.31
2022-12-22T03:49:23.314Z,100091.09
2022-12-22T03:51:51.952Z,100089.44
2022-12-22T03:54:21.674Z,100093.78
2022-12-22T03:56:49.484Z,100099.75
2022-12-22T03:59:18.037Z,100078.97
2022-12-22T04:01:47.974Z,100087.69
2022-12-22T04:04:17.013Z,100097.13
2022-12-22T04:06:44.482Z,100091.09
2022-12-22T04:09:11.855Z,100078.94
2022-12-22T04:11:58.027Z,100081.59
2022-12-22T04:14:33.099Z,100095.38
2022-12-22T04:17:02.237Z,100076.44
2022-12-22T04:19:29.818Z,100085.94
2022-12-22T04:21:57.063Z,100082.44
2022-12-22T04:24:24.256Z,100075.53
2022-12-22T04:26:51.550Z,100095.41
2022-12-22T04:29:18.674Z,100091.09
2022-12-22T04:31:45.790Z,100095.38
2022-12-22T04:34:12.818Z,100099.66
2022-12-22T04:36:40.199Z,100094.47
2022-12-22T04:39:07.704Z,100091.03
2022-12-22T04:41:34.865Z,100107.44
2022-12-22T04:44:02.397Z,100110.00
2022-12-22T04:46:29.629Z,100109.13
2022-12-22T04:49:00.230Z,100109.13
2022-12-22T04:51:28.339Z,100109.91
2022-12-22T04:53:55.660Z,100112.59
2022-12-22T04:56:22.770Z,100116.88
2022-12-22T04:58:49.914Z,100110.03
2022-12-22T05:01:19.085Z,100108.28
2022-12-22T05:03:47.019Z,100101.41
2022-12-22T05:06:14.534Z,100103.13
2022-12-22T05:08:42.253Z,100105.72
2022-12-22T05:11:10.101Z,100103.13
2022-12-22T05:13:37.726Z,100105.78
2022-12-22T05:16:07.671Z,100102.31
2022-12-22T05:18:36.122Z,100106.63
2022-12-22T05:21:07.773Z,100098.84
2022-12-22T05:23:35.020Z,100100.66
2022-12-22T05:26:02.572Z,100105.78
2022-12-22T05:28:29.724Z,100099.72
2022-12-22T05:30:56.879Z,100109.28
2022-12-22T05:33:23.984Z,100107.44
2022-12-22T05:35:51.031Z,100125.59
2022-12-22T05:38:18.171Z,100123.03
2022-12-22T05:40:45.329Z,100114.38
2022-12-22T05:43:12.413Z,100128.09
2022-12-22T05:45:39.512Z,100134.22
2022-12-22T05:48:07.625Z,100141.06
2022-12-22T05:50:34.954Z,100134.88
2022-12-22T05:53:02.778Z,100147.94
2022-12-22T05:55:29.887Z,100147.84
2022-12-22T05:57:57.068Z,100153.91
2022-12-22T06:00:24.132Z,100150.44
2022-12-22T06:02:51.373Z,100152.16
2022-12-22T06:05:18.469Z,100155.59
2022-12-22T06:07:45.540Z,100160.69
2022-12-22T06:10:13.981Z,100171.94
2022-12-22T06:12:42.264Z,100152.09
2022-12-22T06:15:12.325Z,100144.44
2022-12-22T06:17:45.018Z,100135.81
2022-12-22T06:20:14.000Z,100127.97
2022-12-22T06:22:41.642Z,100118.38
2022-12-22T06:25:12.164Z,100130.47
2022-12-22T06:27:42.812Z,100137.31
2022-12-22T06:30:11.108Z,100146.69
2022-12-22T06:32:38.993Z,100151.75
2022-12-22T06:35:10.020Z,100142.09
2022-12-22T06:37:37.376Z,100155.06
2022-12-22T06:40:07.743Z,100162.88
2022-12-22T06:42:53.485Z,100164.56
2022-12-22T06:45:20.615Z,100169.53
2022-12-22T06:47:47.665Z,100176.41
2022-12-22T06:50:14.919Z,100191.84
2022-12-22T06:52:42.713Z,100193.53
2022-12-22T06:55:10.044Z,100200.47
2022-12-22T06:57:37.185Z,100198.81
2022-12-22T07:00:06.490Z,100221.03
2022-12-22T07:02:33.744Z,100217.66
2022-12-22T07:05:00.853Z,100206.44
2022-12-22T07:07:28.050Z,100220.03
2022-12-22T07:09:55.601Z,100231.31
2022-12-22T07:12:23.712Z,100223.38
2022-12-22T07:14:50.994Z,100231.09
2022-12-22T07:17:18.080Z,100239.66
2022-12-22T07:19:45.146Z,100245.75
2022-12-22T07:22:12.233Z,100248.28
2022-12-22T07:24:39.267Z,100245.63
2022-12-22T07:27:08.322Z,100251.72
2022-12-22T07:29:37.233Z,100257.84
2022-12-22T07:32:04.419Z,100262.97
2022-12-22T07:34:31.522Z,100262.09
2022-12-22T07:36:58.630Z,100249.94
2022-12-22T07:39:25.782Z,100260.22
2022-12-22T07:42:11.806Z,100265.19
2022-12-22T07:44:38.932Z,100269.41
2022-12-22T07:47:06.697Z,100265.88
2022-12-22T07:49:52.224Z,100292.66
2022-12-22T07:52:19.318Z,100291.63
2022-12-22T07:54:46.431Z,100291.03
2022-12-22T07:57:13.516Z,100279.66
2022-12-22T07:59:41.164Z,100280.25
2022-12-22T08:02:13.438Z,100294.97
2022-12-22T08:04:41.203Z,100287.94
2022-12-22T08:07:08.381Z,100300.13
2022-12-22T08:09:36.271Z,100306.91
2022-12-22T08:12:03.472Z,100299.63
2022-12-22T08:14:30.624Z,100307.69
2022-12-22T08:16:58.222Z,100313.09
2022-12-22T08:19:25.279Z,100313.94
2022-12-22T08:21:53.369Z,100312.19
2022-12-22T08:24:21.410Z,100307.13
2022-12-22T08:26:52.627Z,100324.34
2022-12-22T08:29:24.223Z,100321.03
2022-12-22T08:31:51.442Z,100319.25
2022-12-22T08:34:18.698Z,100338.97
2022-12-22T08:36:55.376Z,100343.81
2022-12-22T08:39:25.729Z,100346.56
2022-12-22T08:41:53.447Z,100359.25
2022-12-22T08:44:28.685Z,100364.09
2022-12-22T08:46:57.667Z,100366.88
2022-12-22T08:49:25.581Z,100370.91
2022-12-22T08:51:53.337Z,100368.81
2022-12-22T08:54:21.197Z,100369.06
2022-12-22T08:56:49.420Z,100381.63
2022-12-22T08:59:17.609Z,100391.28
2022-12-22T09:01:48.060Z,100400.78
2022-12-22T09:04:18.228Z,100378.25
2022-12-22T09:06:45.993Z,100389.66
2022-12-22T09:09:14.467Z,100387.66
2022-12-22T09:11:41.754Z,100399.78
2022-12-22T09:14:11.974Z,100396.53
2022-12-22T09:16:40.226Z,100401.72
2022-12-22T09:19:08.358Z,100405.19
2022-12-22T09:21:35.992Z,100408.56
2022-12-22T09:24:04.963Z,100412.69
2022-12-22T09:26:32.392Z,100419.88
2022-12-22T09:29:00.136Z,100426.16
2022-12-22T09:31:28.149Z,100421.84
2022-12-22T09:33:55.710Z,100429.88
2022-12-22T09:36:27.956Z,100435.38
2022-12-22T09:38:55.078Z,100440.88
2022-12-22T09:41:36.028Z,100430.84
2022-12-22T09:44:24.338Z,100432.38
2022-12-22T09:46:55.806Z,100428.06
2022-12-22T09:49:23.222Z,100425.59
2022-12-22T09:51:57.137Z,100441.31
2022-12-22T09:54:25.368Z,100442.16
2022-12-22T09:56:52.505Z,100446.69
2022-12-22T09:59:21.345Z,100442.47
2022-12-22T10:02:24.416Z,100445.16
2022-12-22T10:05:07.484Z,100458.03
2022-12-22T10:07:39.132Z,100460.28
2022-12-22T10:10:07.688Z,100460.56
2022-12-22T10:12:34.917Z,100455.63
2022-12-22T10:15:01.967Z,100445.97
2022-12-22T10:17:31.567Z,100459.16
2022-12-22T10:20:17.246Z,100450.91
2022-12-22T10:22:51.070Z,100437.84
2022-12-22T10:26:26.988Z,100446.59
2022-12-22T10:28:29.003Z,100455.19
2022-12-22T10:31:14.667Z,100466.41
2022-12-22T10:33:47.238Z,100460.44
2022-12-22T10:36:27.037Z,100468.25
2022-12-22T10:39:07.405Z,100465.69
2022-12-22T10:41:44.758Z,100459.56
2022-12-22T10:44:23.092Z,100474.34
2022-12-22T10:46:53.455Z,100469.91
2022-12-22T10:49:25.176Z,100474.19
2022-12-22T10:51:55.700Z,100476.00
2022-12-22T10:54:49.526Z,100482.91
2022-12-22T10:57:16.704Z,100475.22
2022-12-22T10:59:54.338Z,100477.16
2022-12-22T11:02:21.682Z,100471.94
2022-12-22T11:04:50.375Z,100477.38
2022-12-22T11:07:18.116Z,100474.69
2022-12-22T11:09:45.255Z,100471.44
2022-12-22T11:12:49.784Z,100483.47
2022-12-22T11:15:29.255Z,100481.09
2022-12-22T11:18:11.419Z,100482.25
2022-12-22T11:21:24.337Z,100485.72
2022-12-22T11:24:21.652Z,100481.59
2022-12-22T11:27:16.930Z,100491.31
2022-12-22T11:29:58.139Z,100485.31
2022-12-22T11:33:16.274Z,100493.19
2022-12-22T11:36:01.855Z,100495.69
2022-12-22T11:38:41.319Z,100489.00
2022-12-22T11:41:50.799Z,100488.22
2022-12-22T11:44:43.090Z,100490.81
2022-12-22T11:47:19.142Z,100482.19
2022-12-22T11:49:52.070Z,100475.19
2022-12-22T11:52:38.792Z,100491.69
2022-12-22T11:55:35.090Z,100490.81
2022-12-22T11:58:18.328Z,100488.22
2022-12-22T12:01:22.321Z,100465.00
2022-12-22T12:04:14.692Z,100483.53
2022-12-22T12:07:07.437Z,100485.94
2022-12-22T12:09:43.310Z,100486.81
2022-12-22T12:12:36.880Z,100475.75
2022-12-22T12:15:03.915Z,100493.97
2022-12-22T12:17:43.294Z,100485.34
2022-12-22T12:20:45.749Z,100479.16
2022-12-22T12:23:24.653Z,100488.88
2022-12-22T12:25:55.203Z,100485.44
2022-12-22T12:28:25.369Z,100484.59
2022-12-22T12:30:59.289Z,100480.28
2022-12-22T12:33:48.262Z,100469.22
2022-12-22T12:36:27.083Z,100476.22
2022-12-22T12:39:26.149Z,100474.47
2022-12-22T12:42:20.811Z,100470.28
2022-12-22T12:44:48.635Z,100444.88
2022-12-22T12:47:36.112Z,100461.53
2022-12-22T12:50:32.544Z,100459.72
2022-12-22T12:53:08.915Z,100467.19
2022-12-22T12:56:03.889Z,100463.59
2022-12-22T12:58:48.365Z,100466.06
2022-12-22T13:01:18.386Z,100484.69
2022-12-22T13:04:03.480Z,100492.84
2022-12-22T13:06:49.269Z,100494.03
2022-12-22T13:12:40.299Z,100504.94
2022-12-22T13:15:35.465Z,100502.59
2022-12-22T13:18:09.665Z,100519.56
2022-12-22T13:20:37.733Z,100495.78
2022-12-22T13:23:12.266Z,100518.31
2022-12-22T13:25:49.961Z,100502.66
2022-12-22T13:28:18.939Z,100514.47
2022-12-22T13:30:49.222Z,100522.75
2022-12-22T13:33:20.908Z,100512.63
2022-12-22T13:35:54.919Z,100529.28
2022-12-22T13:38:32.272Z,100524.84
2022-12-22T13:41:03.407Z,100511.53
2022-12-22T13:43:33.087Z,100508.41
2022-12-22T13:46:02.681Z,100499.88
2022-12-22T13:48:43.922Z,100491.41
2022-12-22T13:51:20.157Z,100498.47
2022-12-22T13:54:11.999Z,100489.06
2022-12-22T13:56:46.473Z,100496.75
2022-12-22T13:59:26.184Z,100496.75
2022-12-22T14:02:00.571Z,100485.59
2022-12-22T14:04:29.804Z,100471.00
2022-12-22T14:06:57.509Z,100471.59
2022-12-22T14:09:27.073Z,100469.94
2022-12-22T14:11:57.004Z,100460.50
2022-12-22T14:14:28.175Z,100458.81
2022-12-22T14:17:00.646Z,100456.25
2022-12-22T14:19:36.936Z,100466.16
2022-12-22T14:22:08.572Z,100464.34
2022-12-22T14:24:43.094Z,100460.97
2022-12-22T14:27:31.165Z,100455.66
2022-12-22T14:30:00.826Z,100456.50
2022-12-22T14:32:52.355Z,100445.03
2022-12-22T14:35:21.387Z,100452.03
2022-12-22T14:37:48.605Z,100454.47
2022-12-22T14:40:35.936Z,100456.47
2022-12-22T14:43:23.955Z,100446.59
2022-12-22T14:45:52.473Z,100440.53
2022-12-22T14:48:45.419Z,100440.38
2022-12-22T14:51:17.784Z,100436.97
2022-12-22T14:53:51.207Z,100429.28
2022-12-22T14:56:19.122Z,100424.13
2022-12-22T14:58:47.410Z,100421.69
2022-12-22T15:01:25.133Z,100425.25
2022-12-22T15:04:02.259Z,100420.97
2022-12-22T15:06:29.388Z,100413.25
2022-12-22T15:09:12.137Z,100414.78
2022-12-22T15:11:44.886Z,100413.09
2022-12-22T15:14:16.471Z,100403.47
2022-12-22T15:16:44.888Z,100413.88
2022-12-22T15:19:17.702Z,100406.09
2022-12-22T15:21:44.708Z,100394.00
2022-12-22T15:24:15.561Z,100402.69
2022-12-22T15:26:44.187Z,100404.53
2022-12-22T15:29:11.958Z,100402.47
2022-12-22T15:31:40.285Z,100401.75
2022-12-22T15:34:15.116Z,100390.72
2022-12-22T15:36:42.840Z,100393.72
2022-12-22T15:39:15.605Z,100392.34
2022-12-22T15:41:44.328Z,100389.84
2022-12-22T15:44:12.854Z,100388.16
2022-12-22T15:46:43.146Z,100384.41
2022-12-22T15:49:18.116Z,100372.47
2022-12-22T15:51:50.129Z,100378.59
2022-12-22T15:54:18.243Z,100383.00
2022-12-22T15:56:46.341Z,100377.97
2022-12-22T15:59:22.479Z,100381.56
2022-12-22T16:01:56.505Z,100377.25
2022-12-22T16:04:28.194Z,100361.88
2022-12-22T16:06:56.318Z,100377.34
2022-12-22T16:09:27.545Z,100375.56
2022-12-22T16:11:55.117Z,100370.31
2022-12-22T16:14:22.750Z,100361.66
2022-12-22T16:16:50.190Z,100354.69
2022-12-22T16:19:18.344Z,100361.53
2022-12-22T16:21:48.191Z,100356.25
2022-12-22T16:24:26.522Z,100334.97
2022-12-22T16:26:56.904Z,100326.31
2022-12-22T16:29:25.003Z,100325.69
2022-12-22T16:31:52.435Z,100318.91
2022-12-22T16:34:19.626Z,100319.63
2022-12-22T16:36:46.721Z,100311.88
2022-12-22T16:39:13.808Z,100310.13
2022-12-22T16:41:43.506Z,100306.66
2022-12-22T16:44:22.588Z,100298.19
2022-12-22T16:46:49.969Z,100296.28
2022-12-22T16:49:26.134Z,100294.34
2022-12-22T16:51:55.147Z,100281.50
2022-12-22T16:54:22.293Z,100285.72
2022-12-22T16:56:51.562Z,100280.56
2022-12-22T16:59:18.847Z,100277.00
2022-12-22T17:01:52.478Z,100284.03
2022-12-22T17:04:28.396Z,100277.97
2022-12-22T17:06:58.335Z,100274.44
2022-12-22T17:09:31.106Z,100273.63
2022-12-22T17:11:59.390Z,100268.59
2022-12-22T17:14:31.461Z,100265.09
2022-12-22T17:17:01.498Z,100257.56
2022-12-22T17:19:28.734Z,100251.31
2022-12-22T17:21:58.663Z,100261.03
2022-12-22T17:24:28.649Z,100241.06
2022-12-22T17:27:04.918Z,100254.25
2022-12-22T17:29:35.568Z,100238.81
2022-12-22T17:32:02.799Z,100229.09
2022-12-22T17:34:30.002Z,100211.69
2022-12-22T17:36:59.255Z,100231.78
2022-12-22T17:39:26.413Z,100222.41
2022-12-22T17:41:57.297Z,100213.69
2022-12-22T17:44:27.410Z,100205.19
2022-12-22T17:46:54.716Z,100221.50
2022-12-22T17:49:22.759Z,100205.22
2022-12-22T17:51:50.404Z,100203.44
2022-12-22T17:54:26.251Z,100199.22
2022-12-22T17:57:01.833Z,100194.03
2022-12-22T17:59:29.271Z,100186.34
2022-12-22T18:01:56.697Z,100193.28
2022-12-22T18:04:23.886Z,100182.94
2022-12-22T18:06:51.155Z,100184.78
2022-12-22T18:09:25.090Z,100188.28
2022-12-22T18:11:53.658Z,100183.19
2022-12-22T18:14:22.252Z,100176.22
2022-12-22T18:16:49.498Z,100174.75
2022-12-22T18:19:16.626Z,100163.50
2022-12-22T18:21:44.199Z,100172.22
2022-12-22T18:24:19.338Z,100157.50
2022-12-22T18:26:47.192Z,100163.56
2022-12-22T18:29:15.746Z,100133.34
2022-12-22T18:31:44.119Z,100152.53
2022-12-22T18:34:12.222Z,100149.88
2022-12-22T18:36:42.406Z,100139.72
2022-12-22T18:39:18.804Z,100139.66
2022-12-22T18:41:46.485Z,100145.78
2022-12-22T18:44:17.679Z,100135.44
2022-12-22T18:46:45.432Z,100148.41
2022-12-22T18:49:12.746Z,100141.53
2022-12-22T18:51:39.896Z,100137.31
2022-12-22T18:54:22.714Z,100135.63
2022-12-22T18:56:49.815Z,100140.84
2022-12-22T18:59:24.810Z,100121.97
2022-12-22T19:01:52.585Z,100123.69
2022-12-22T19:04:19.968Z,100119.38
2022-12-22T19:06:47.061Z,100126.41
2022-12-22T19:09:15.418Z,100128.19
2022-12-22T19:11:43.343Z,100127.31
2022-12-22T19:14:18.252Z,100113.69
2022-12-22T19:16:46.008Z,100106.00
2022-12-22T19:19:18.645Z,100104.28
2022-12-22T19:21:48.572Z,100105.09
2022-12-22T19:24:18.496Z,100115.50
2022-12-22T19:26:45.611Z,100112.00
2022-12-22T19:29:14.829Z,100108.66
2022-12-22T19:31:43.298Z,100107.91
2022-12-22T19:34:16.568Z,100111.38
2022-12-22T19:36:43.646Z,100106.28
2022-12-22T19:39:11.217Z,100108.75
2022-12-22T19:41:51.289Z,100119.13
2022-12-22T19:44:18.414Z,100114.09
2022-12-22T19:46:45.919Z,100120.88
2022-12-22T19:49:19.293Z,100115.00
2022-12-22T19:51:46.399Z,100115.91
2022-12-22T19:54:14.111Z,100108.16
2022-12-22T19:56:42.918Z,100099.50
2022-12-22T19:59:28.191Z,100109.13
2022-12-22T20:01:57.384Z,100101.44
2022-12-22T20:04:24.559Z,100107.50
2022-12-22T20:06:51.657Z,100103.19
2022-12-22T20:09:18.738Z,100103.22
2022-12-22T20:11:46.221Z,100107.56
2022-12-22T20:14:19.366Z,100101.56
2022-12-22T20:16:46.455Z,100099.03
2022-12-22T20:19:14.399Z,100099.09
2022-12-22T20:21:41.987Z,100093.97
2022-12-22T20:24:19.596Z,100097.41
2022-12-22T20:26:52.012Z,100102.69
2022-12-22T20:29:21.673Z,100094.94
2022-12-22T20:31:48.785Z,100106.16
2022-12-22T20:34:15.909Z,100109.69
2022-12-22T20:36:43.384Z,100115.66
2022-12-22T20:39:13.518Z,100111.44
2022-12-22T20:41:43.352Z,100118.34
2022-12-22T20:44:12.758Z,100103.69
2022-12-22T20:46:40.781Z,100105.47
2022-12-22T20:49:15.038Z,100094.19
2022-12-22T20:51:42.129Z,100099.47
2022-12-22T20:54:14.125Z,100102.09
2022-12-22T20:56:44.091Z,100102.03
2022-12-22T20:59:17.608Z,100096.00
2022-12-22T21:01:46.569Z,100101.16
2022-12-22T21:04:15.818Z,100106.31
2022-12-22T21:06:49.045Z,100114.13
2022-12-22T21:09:16.664Z,100104.53
2022-12-22T21:11:44.201Z,100101.09
2022-12-22T21:14:12.667Z,100099.47
2022-12-22T21:16:41.567Z,100106.41
2022-12-22T21:19:15.078Z,100103.88
2022-12-22T21:21:42.141Z,100107.44
2022-12-22T21:24:09.475Z,100103.13
2022-12-22T21:26:43.656Z,100110.88
2022-12-22T21:29:21.717Z,100104.81
2022-12-22T21:31:48.828Z,100121.22
2022-12-22T21:34:16.008Z,100106.50
2022-12-22T21:36:45.787Z,100122.06
2022-12-22T21:39:25.377Z,100119.53
2022-12-22T21:42:03.091Z,100123.75
2022-12-22T21:44:33.003Z,100110.78
2022-12-22T21:47:00.601Z,100110.75
2022-12-22T21:49:30.625Z,100116.09
2022-12-22T21:51:57.678Z,100092.72
2022-12-22T21:54:25.974Z,100111.75
2022-12-22T21:56:54.303Z,100110.13
2022-12-22T21:59:22.113Z,100112.66
2022-12-22T22:01:52.415Z,100105.78
2022-12-22T22:04:20.990Z,100110.91
2022-12-22T22:06:48.606Z,100122.13
2022-12-22T22:09:15.733Z,100120.41
2022-12-22T22:12:01.532Z,100120.44
2022-12-22T22:14:28.676Z,100118.72
2022-12-22T22:16:55.869Z,100124.72
2022-12-22T22:19:22.924Z,100129.88
2022-12-22T22:21:50.016Z,100117.75
2022-12-22T22:24:17.166Z,100123.03
2022-12-22T22:26:45.980Z,100122.19
2022-12-22T22:29:13.378Z,100125.72
2022-12-22T22:31:41.503Z,100135.22
2022-12-22T22:34:10.015Z,100129.16
2022-12-22T22:36:37.325Z,100130.81
2022-12-22T22:39:04.550Z,100130.84
2022-12-22T22:41:39.084Z,100133.47
2022-12-22T22:44:07.400Z,100132.63
2022-12-22T22:46:34.341Z,100132.59
2022-12-22T22:49:01.445Z,100136.88
2022-12-22T22:51:28.652Z,100133.47
2022-12-22T22:53:55.729Z,100129.97
2022-12-22T22:56:22.828Z,100139.53
2022-12-22T22:58:49.914Z,100133.56
2022-12-22T23:01:16.997Z,100130.97
2022-12-22T23:03:44.222Z,100138.81
2022-12-22T23:06:13.163Z,100119.72
2022-12-22T23:08:40.789Z,100141.41
2022-12-22T23:11:13.705Z,100138.88
2022-12-22T23:13:41.189Z,100136.28
2022-12-22T23:16:08.462Z,100133.66
2022-12-22T23:18:37.003Z,100125.91
2022-12-22T23:21:07.541Z,100126.81
2022-12-22T23:23:35.458Z,100119.00
2022-12-22T23:26:03.235Z,100123.28
2022-12-22T23:28:30.294Z,100129.34
2022-12-22T23:30:57.434Z,100129.34
2022-12-22T23:33:24.795Z,100124.06
2022-12-22T23:35:52.511Z,100124.06
2022-12-22T23:38:20.991Z,100131.81
2022-12-22T23:40:53.692Z,100130.13
2022-12-22T23:43:21.942Z,100146.41
2022-12-22T23:45:49.228Z,100137.84
2022-12-22T23:48:16.428Z,100142.16
2022-12-22T23:50:47.434Z,100149.00
2022-12-22T23:53:15.615Z,100150.69
2022-12-22T23:55:46.256Z,100148.19
2022-12-22T23:58:14.777Z,100143.81
